• Join FlightAware (Why Join?)
  • Login
  • US Flag 
12:48PM EDT


 

Airport Tracker/Info


-or-


 

Live Flight TrackerFlight Track Log ✈ USC105 ✈ 25-Apr-2013 ✈ KLCK - KBKL

Flight Track Log - Related Links

Times and Time Zones

All times are in EDT time to prevent confusion due to time zone crossing. See the USC105 flight status page for this flight to view local times or setup timezone preferences in your user account.

Time Position Orientation Groundspeed Altitude Reporting Facility
EDT Latitude Longitude Course Direction KTS MPH feet Rate Location/Type
10:05PM 39.8033 -82.9444 221° Southwest 117 135 1,100  Level Indianapolis Center
10:05PM 39.7944 -82.9544 221° Southwest 109 125 1,600 1,020 Climbing Indianapolis Center
10:06PM 39.8083 -82.9642 332° Northwest 118 136 2,600 960 Climbing Indianapolis Center
10:07PM 39.8231 -82.9556 24° Northeast 124 143 3,000 720 Climbing Indianapolis Center
10:07PM 39.8367 -82.9483 22° Northeast 133 153 3,300 660 Climbing Indianapolis Center
10:08PM 39.8575 -82.9331 29° Northeast 128 147 3,700 540 Climbing Indianapolis Center
10:08PM 39.8808 -82.9153 30° Northeast 150 173 4,000 360 Climbing Indianapolis Center
10:09PM 39.8936 -82.9044 33° Northeast 140 161 4,100 300 Climbing Indianapolis Center
10:09PM 39.9161 -82.8867 31° Northeast 165 190 4,300 360 Climbing Indianapolis Center
10:10PM 39.9336 -82.8711 34° Northeast 156 180 4,500 480 Climbing Indianapolis Center
10:10PM 39.9558 -82.8558 28° Northeast 169 194 4,800 540 Climbing Indianapolis Center
10:11PM 39.9750 -82.8406 31° Northeast 165 190 5,100 600 Climbing Indianapolis Center
10:11PM 39.9978 -82.8253 27° Northeast 180 207 5,400 540 Climbing Indianapolis Center
10:12PM 40.0206 -82.8083 30° Northeast 181 208 5,700 660 Climbing Indianapolis Center
10:12PM 40.0506 -82.7878 28° Northeast 190 219 6,200 660 Climbing Indianapolis Center
10:13PM 40.0669 -82.7753 30° Northeast 188 216 6,400 660 Climbing Indianapolis Center
10:13PM 40.0967 -82.7519 31° Northeast 194 223 6,900 480 Climbing Indianapolis Center
10:14PM 40.1142 -82.7386 30° Northeast 194 223 6,900 60 Level Indianapolis Center
10:14PM 40.1453 -82.7139 31° Northeast 209 241 7,000 60 Climbing Indianapolis Center
10:15PM 40.1656 -82.6967 33° Northeast 211 243 7,000 -120 Level Indianapolis Center
10:15PM 40.1983 -82.6706 31° Northeast 225 259 6,900 -120 Descending Indianapolis Center
10:16PM 40.2175 -82.6539 34° Northeast 218 251 6,900  Level Indianapolis Center
10:16PM 40.2492 -82.6297 30° Northeast 215 247 6,900  Level Indianapolis Center
10:17PM 40.2700 -82.6167 26° Northeast 215 247 6,900  Level Indianapolis Center
10:18PM 40.3119 -82.5983 18° North 212 244 6,900  Level Indianapolis Center
10:18PM 40.3247 -82.5867 35° Northeast 212 244 6,900  Level Indianapolis Center
10:19PM 40.3625 -82.5575 30° Northeast 218 251 6,900  Level Indianapolis Center
10:19PM 40.3767 -82.5472 29° Northeast 213 245 6,900  Level Indianapolis Center
10:19PM 40.4064 -82.5267 28° Northeast 211 243 6,900  Level Indianapolis Center
10:20PM 40.4283 -82.5106 29° Northeast 211 243 6,900  Level Indianapolis Center
10:21PM 40.4589 -82.4886 29° Northeast 206 237 6,900  Level Indianapolis Center
10:21PM 40.4775 -82.4736 32° Northeast 206 237 6,900  Level Indianapolis Center
10:22PM 40.5261 -82.4367 30° Northeast 202 232 6,900  Level Indianapolis Center
10:23PM 40.5758 -82.4011 29° Northeast 201 231 6,900  Level Indianapolis Center
10:24PM 40.6306 -82.3583 31° Northeast 198 228 6,900  Level Indianapolis Center
10:25PM 40.6758 -82.3231 31° Northeast 193 222 6,900  Level Indianapolis Center
10:26PM 40.7225 -82.2892 29° Northeast 190 219 6,900  Level Indianapolis Center
10:27PM 40.7689 -82.2542 30° Northeast 190 219 6,900  Level Indianapolis Center
10:28PM 40.8147 -82.2194 30° Northeast 189 217 6,900  Level Indianapolis Center
10:29PM 40.8600 -82.1861 29° Northeast 186 214 6,900  Level Indianapolis Center
10:30PM 40.9028 -82.1544 29° Northeast 187 215 6,900  Level Cleveland Center
10:32PM 40.9961 -82.0828 30° Northeast 184 212 6,900  Level Indianapolis Center
10:33PM 41.0414 -82.0464 31° Northeast 187 215 7,000  Climbing Indianapolis Center
10:34PM 41.0867 -82.0136 29° Northeast 184 212 6,900 -120 Descending Indianapolis Center
10:35PM 41.1308 -81.9714 36° Northeast 192 221 6,800 -300 Descending Indianapolis Center
10:36PM 41.1775 -81.9317 33° Northeast 196 226 6,400 -360 Descending Indianapolis Center
10:37PM 41.2222 -81.8861 37° Northeast 201 231 6,100 -300 Descending Indianapolis Center
10:38PM 41.2578 -81.8294 50° Northeast 199 229 5,800 -360 Descending Indianapolis Center
10:39PM 41.2964 -81.7750 47° Northeast 199 229 5,400 -480 Descending Indianapolis Center
10:40PM 41.3364 -81.7242 44° Northeast 197 227 4,900 -720 Descending Indianapolis Center
10:41PM 41.3758 -81.6717 45° Northeast 195 224 4,000 -960 Descending Indianapolis Center
10:42PM 41.3900 -81.6653 19° North 200 230 3,700 -900 Descending Cleveland Center
10:43PM 41.4422 -81.6383 21° North 185 213 2,900 -900 Descending Cleveland Center
10:44PM 41.4903 -81.6364 North 180 207 1,900 -840 Descending Cleveland Center
10:45PM 41.5275 -81.6536 341° North 129 148 1,300 -600 Descending Cleveland Center
10:47PM 41.5167 -81.6667 270° West  Level FlightAware Approximate
10:54PM 41.5175 -81.6833 270° West  Level Estimated